CheckWX is a tool to help pilots better visualize weather data.  It is not intended as a substitute for an official pre-flight weather briefing.

22:42:57 UTC

KDTO METAR
Denton Enterprise Airport
Denton, Texas, USA
Current

50 mins ago

KDTO 012153Z 16012G21KT 10SM CLR 21/10 A2988 RMK AO2 SLP114 T02110100
Observed
Apr-1 @ 21:53 UTC
Wind
  • 160° at 12 KTS
  • Gusting to 21 KTS
Visibility
10 SM
Flight Rules
VFR
Cloud Levels
  • Clear skies
Temperature
21°C / 70°F
Dewpoint
10°C / 50°F
Humidity
50%
Altimeter
29.88" Hg
Pressure
1011.82 hPa
Previous

2 hours ago

KDTO 012053Z 15017G21KT 10SM CLR 21/09 A2990 RMK AO2 SLP120 T02110094 58033
Observed
Apr-1 @ 20:53 UTC
Wind
  • 150° at 17 KTS
  • Gusting to 21 KTS
Visibility
10 SM
Flight Rules
VFR
Cloud Levels
  • Clear skies
Temperature
21°C / 70°F
Dewpoint
C / 48°F
Humidity
46%
Altimeter
29.9" Hg
Pressure
1012.52 hPa
Previous

3 hours ago

KDTO 011953Z 15013KT 10SM CLR 21/09 A2993 RMK AO2 SLP130 T02110094
Observed
Apr-1 @ 19:53 UTC
Wind
  • 150° at 13 KTS
Visibility
10 SM
Flight Rules
VFR
Cloud Levels
  • Clear skies
Temperature
21°C / 70°F
Dewpoint
C / 48°F
Humidity
46%
Altimeter
29.93" Hg
Pressure
1013.52 hPa